createdAt,value
2018-12-08T00:00:32.778Z,99015.03
2018-12-08T00:01:34.465Z,99015.36
2018-12-08T00:02:35.613Z,99017.51
2018-12-08T00:03:36.752Z,99010.84
2018-12-08T00:04:37.880Z,99009.19
2018-12-08T00:05:39.046Z,99010.36
2018-12-08T00:06:40.325Z,99010.36
2018-12-08T00:07:41.502Z,99009.84
2018-12-08T00:08:42.642Z,99006.17
2018-12-08T00:09:43.779Z,99003.17
2018-12-08T00:10:45.025Z,99000.02
2018-12-08T00:11:46.154Z,99000.52
2018-12-08T00:12:47.302Z,98979.11
2018-12-08T00:13:48.441Z,99001.03
2018-12-08T00:14:49.605Z,99000.52
2018-12-08T00:15:50.726Z,98996.52
2018-12-08T00:16:51.842Z,98996.19
2018-12-08T00:17:53.110Z,98998.85
2018-12-08T00:18:54.633Z,98997.52
2018-12-08T00:19:55.788Z,98996.19
2018-12-08T00:20:56.918Z,99000.38
2018-12-08T00:22:04.962Z,98994.53
2018-12-08T00:23:06.105Z,98992.70
2018-12-08T00:24:07.218Z,98988.55
2018-12-08T00:25:08.350Z,98994.72
2018-12-08T00:26:11.159Z,98987.21
2018-12-08T00:27:12.520Z,98985.88
2018-12-08T00:28:13.641Z,98981.88
2018-12-08T00:29:14.770Z,98984.55
2018-12-08T00:30:28.165Z,98981.55
2018-12-08T00:31:40.474Z,98978.89
2018-12-08T00:32:41.586Z,98974.41
2018-12-08T00:33:42.709Z,98969.56
2018-12-08T00:34:43.845Z,98975.41
2018-12-08T00:35:44.977Z,98975.09
2018-12-08T00:36:46.114Z,98970.25
2018-12-08T00:37:47.241Z,98971.58
2018-12-08T00:38:48.366Z,98969.92
2018-12-08T00:39:49.497Z,98969.08
2018-12-08T00:40:50.633Z,98969.08
2018-12-08T00:41:51.745Z,98965.92
2018-12-08T00:42:52.873Z,98968.27
2018-12-08T00:43:54.002Z,98966.08
2018-12-08T00:44:55.118Z,98960.27
2018-12-08T00:45:56.257Z,98965.59
2018-12-08T00:46:57.379Z,98965.08
2018-12-08T00:47:58.494Z,98961.59
2018-12-08T00:48:59.613Z,98958.94
2018-12-08T00:50:00.766Z,98955.42
2018-12-08T00:51:01.889Z,98957.60
2018-12-08T00:52:03.027Z,98956.76
2018-12-08T00:53:04.171Z,98956.43
2018-12-08T00:54:06.181Z,98957.28
2018-12-08T00:55:07.445Z,98953.77
2018-12-08T00:56:08.589Z,98954.28
2018-12-08T00:57:09.734Z,98947.95
2018-12-08T00:58:10.850Z,98948.11
2018-12-08T00:59:11.969Z,98943.63
2018-12-08T01:00:13.157Z,98947.63
2018-12-08T01:01:14.409Z,98946.30
2018-12-08T01:02:15.538Z,98945.64
2018-12-08T01:03:16.674Z,98952.95
2018-12-08T01:04:17.817Z,98946.45
2018-12-08T01:05:18.969Z,98940.64
2018-12-08T01:06:27.125Z,98939.63
2018-12-08T01:07:28.256Z,98936.96
2018-12-08T01:08:29.414Z,98937.64
2018-12-08T01:09:30.545Z,98936.12
2018-12-08T01:10:31.671Z,98928.32
2018-12-08T01:11:32.811Z,98929.45
2018-12-08T01:12:33.969Z,98928.32
2018-12-08T01:13:35.173Z,98928.81
2018-12-08T01:14:36.306Z,98925.66
2018-12-08T01:15:37.436Z,98931.99
2018-12-08T01:16:38.696Z,98932.31
2018-12-08T01:17:39.822Z,98929.13
2018-12-08T01:18:40.950Z,98926.66
2018-12-08T01:19:42.078Z,98926.98
2018-12-08T01:20:43.217Z,98930.98
2018-12-08T01:21:44.353Z,98926.66
2018-12-08T01:22:45.465Z,98922.98
2018-12-08T01:23:46.611Z,98922.47
2018-12-08T01:24:47.737Z,98922.47
2018-12-08T01:25:48.890Z,98920.13
2018-12-08T01:26:50.019Z,98921.46
2018-12-08T01:27:51.146Z,98917.79
2018-12-08T01:28:52.289Z,98914.31
2018-12-08T01:29:53.414Z,98913.47
2018-12-08T01:31:01.506Z,98918.63
2018-12-08T01:32:02.676Z,98909.80
2018-12-08T01:33:03.798Z,98915.97
2018-12-08T01:34:04.922Z,98912.98
2018-12-08T01:35:06.088Z,98907.65
2018-12-08T01:36:07.253Z,98903.13
2018-12-08T01:37:08.374Z,98909.66
2018-12-08T01:38:09.534Z,98906.31
2018-12-08T01:39:10.797Z,98910.31
2018-12-08T01:40:11.935Z,98910.64
2018-12-08T01:41:13.073Z,98908.14
2018-12-08T01:42:21.245Z,98903.66
2018-12-08T01:43:22.365Z,98908.98
2018-12-08T01:44:23.502Z,98902.32
2018-12-08T01:45:24.648Z,98900.34
2018-12-08T01:46:25.909Z,98901.47
2018-12-08T01:47:27.153Z,98903.81
2018-12-08T01:48:28.289Z,98899.01
2018-12-08T01:49:29.437Z,98902.48
2018-12-08T01:50:30.729Z,98900.14
2018-12-08T01:51:31.854Z,98893.67
2018-12-08T01:52:32.984Z,98891.50
2018-12-08T01:53:34.133Z,98894.48
2018-12-08T01:54:35.258Z,98893.67
2018-12-08T01:55:36.394Z,98889.36
2018-12-08T01:56:37.561Z,98893.67
2018-12-08T01:57:38.737Z,98892.02
2018-12-08T01:58:39.906Z,98884.02
2018-12-08T01:59:41.073Z,98891.02
2018-12-08T02:00:42.237Z,98884.84
2018-12-08T02:01:43.381Z,98885.36
2018-12-08T02:02:44.529Z,98884.34
2018-12-08T02:03:45.660Z,98832.64
2018-12-08T02:04:46.809Z,98880.35
2018-12-08T02:05:47.962Z,98882.49
2018-12-08T02:06:49.114Z,98879.83
2018-12-08T02:07:50.261Z,98887.66
2018-12-08T02:08:51.405Z,98876.35
2018-12-08T02:09:52.545Z,98879.83
2018-12-08T02:10:53.701Z,98873.17
2018-12-08T02:11:54.857Z,98875.02
2018-12-08T02:12:56.009Z,98872.68
2018-12-08T02:13:57.137Z,98871.52
2018-12-08T02:14:58.271Z,98874.83
2018-12-08T02:15:59.438Z,98869.69
2018-12-08T02:17:00.569Z,98869.69
2018-12-08T02:18:01.725Z,98868.36
2018-12-08T02:19:02.881Z,98865.70
2018-12-08T02:20:04.377Z,98867.02
2018-12-08T02:21:05.513Z,98864.36
2018-12-08T02:22:06.641Z,98862.02
2018-12-08T02:23:07.785Z,98857.18
2018-12-08T02:24:08.926Z,98854.19
2018-12-08T02:25:10.089Z,98853.70
2018-12-08T02:26:11.233Z,98857.70
2018-12-08T02:27:12.468Z,98853.70
2018-12-08T02:28:13.610Z,98854.19
2018-12-08T02:29:21.873Z,98856.36
2018-12-08T02:30:23.013Z,98852.38
2018-12-08T02:31:24.161Z,98848.38
2018-12-08T02:32:25.299Z,98843.53
2018-12-08T02:33:26.430Z,98845.38
2018-12-08T02:34:27.574Z,98844.38
2018-12-08T02:35:28.779Z,98841.39
2018-12-08T02:36:29.973Z,98846.72
2018-12-08T02:37:31.139Z,98840.05
2018-12-08T02:38:32.393Z,98837.39
2018-12-08T02:39:33.529Z,98840.55
2018-12-08T02:40:34.707Z,98835.73
2018-12-08T02:41:35.848Z,98839.86
2018-12-08T02:42:37.009Z,98833.39
2018-12-08T02:43:38.182Z,98830.20
2018-12-08T02:44:39.330Z,98829.39
2018-12-08T02:45:40.456Z,98830.20
2018-12-08T02:46:41.582Z,98822.73
2018-12-08T02:47:42.759Z,98825.72
2018-12-08T02:48:43.892Z,98825.40
2018-12-08T02:49:45.165Z,98824.39
2018-12-08T02:50:46.297Z,98820.39
2018-12-08T02:51:47.484Z,98824.06
2018-12-08T02:52:48.632Z,98818.54
2018-12-08T02:53:49.770Z,98819.06
2018-12-08T02:54:50.924Z,98824.39
2018-12-08T02:55:52.069Z,98821.20
2018-12-08T02:56:53.229Z,98822.22
2018-12-08T02:58:01.377Z,98817.73
2018-12-08T02:59:02.537Z,98825.03
2018-12-08T03:00:05.678Z,98821.72
2018-12-08T03:01:06.828Z,98822.38
2018-12-08T03:02:08.018Z,98823.70
2018-12-08T03:03:09.183Z,98815.52
2018-12-08T03:04:10.461Z,98819.83
2018-12-08T03:05:11.867Z,98817.00
2018-12-08T03:06:20.010Z,98815.98
2018-12-08T03:07:21.161Z,98815.14
2018-12-08T03:08:22.310Z,98810.94
2018-12-08T03:09:23.468Z,98809.61
2018-12-08T03:10:24.614Z,98806.78
2018-12-08T03:11:25.761Z,98802.26
2018-12-08T03:12:26.913Z,98805.25
2018-12-08T03:13:28.061Z,98804.23
2018-12-08T03:14:29.238Z,98795.75
2018-12-08T03:15:30.401Z,98796.08
2018-12-08T03:16:31.530Z,98797.73
2018-12-08T03:17:32.651Z,98795.55
2018-12-08T03:18:33.780Z,98791.88
2018-12-08T03:19:34.914Z,98789.90
2018-12-08T03:20:36.092Z,98791.88
2018-12-08T03:21:37.213Z,98789.53
2018-12-08T03:22:38.333Z,98789.20
2018-12-08T03:23:39.455Z,98785.73
2018-12-08T03:24:40.591Z,98793.20
2018-12-08T03:25:41.726Z,98786.22
2018-12-08T03:26:42.853Z,98783.55
2018-12-08T03:27:43.989Z,98782.75
2018-12-08T03:28:45.111Z,98783.23
2018-12-08T03:29:46.237Z,98786.22
2018-12-08T03:30:47.390Z,98777.91
2018-12-08T03:31:48.590Z,98779.56
2018-12-08T03:32:49.730Z,98776.89
2018-12-08T03:33:50.865Z,98771.23
2018-12-08T03:34:51.989Z,98772.08
2018-12-08T03:35:53.113Z,98777.58
2018-12-08T03:36:54.237Z,98775.44
2018-12-08T03:37:55.369Z,98774.59
2018-12-08T03:38:56.483Z,98771.93
2018-12-08T03:39:57.602Z,98770.92
2018-12-08T03:40:58.725Z,98770.59
2018-12-08T03:41:59.877Z,98771.93
2018-12-08T03:43:00.999Z,98769.78
2018-12-08T03:44:02.382Z,98772.45
2018-12-08T03:45:04.051Z,98767.13
2018-12-08T03:46:05.181Z,98763.61
2018-12-08T03:47:06.310Z,98762.80
2018-12-08T03:48:07.583Z,98767.13
2018-12-08T03:49:08.716Z,98758.97
2018-12-08T03:50:10.076Z,98761.95
2018-12-08T03:51:11.203Z,98756.63
2018-12-08T03:52:12.339Z,98759.49
2018-12-08T03:53:13.463Z,98752.30
2018-12-08T03:54:14.594Z,98754.48
2018-12-08T03:55:15.714Z,98757.64
2018-12-08T03:56:16.858Z,98750.66
2018-12-08T03:57:17.985Z,98750.66
2018-12-08T03:58:19.107Z,98754.48
2018-12-08T03:59:20.229Z,98747.66
2018-12-08T04:00:21.357Z,98750.16
2018-12-08T04:01:22.498Z,98743.67
2018-12-08T04:02:23.629Z,98749.84
2018-12-08T04:03:24.770Z,98744.31
2018-12-08T04:04:25.935Z,98741.84
2018-12-08T04:05:27.090Z,98741.00
2018-12-08T04:06:28.249Z,98741.00
2018-12-08T04:07:29.386Z,98737.00
2018-12-08T04:08:30.653Z,98740.68
2018-12-08T04:09:31.809Z,98734.02
2018-12-08T04:10:32.973Z,98737.52
2018-12-08T04:11:34.129Z,98744.67
2018-12-08T04:12:35.257Z,98739.88
2018-12-08T04:13:36.459Z,98739.02
2018-12-08T04:14:37.621Z,98736.69
2018-12-08T04:15:38.776Z,98739.34
2018-12-08T04:16:39.932Z,98739.02
2018-12-08T04:17:41.085Z,98740.36
2018-12-08T04:18:42.222Z,98734.22
2018-12-08T04:19:43.361Z,98741.69
2018-12-08T04:20:51.470Z,98741.38
2018-12-08T04:21:52.590Z,98742.70
2018-12-08T04:22:53.851Z,98741.69
2018-12-08T04:23:54.998Z,98738.70
2018-12-08T04:24:56.303Z,98744.55
2018-12-08T04:25:57.505Z,98740.03
2018-12-08T04:26:58.653Z,98739.72
2018-12-08T04:27:59.770Z,98737.05
2018-12-08T04:29:00.897Z,98733.38
2018-12-08T04:30:02.483Z,98737.89
2018-12-08T04:31:03.621Z,98699.28
2018-12-08T04:32:04.746Z,98730.39
2018-12-08T04:33:05.877Z,98726.56
2018-12-08T04:34:07.012Z,98720.22
2018-12-08T04:35:08.151Z,98717.55
2018-12-08T04:36:09.294Z,98715.73
2018-12-08T04:37:10.541Z,98712.74
2018-12-08T04:38:11.668Z,98711.09
2018-12-08T04:39:12.801Z,98712.74
2018-12-08T04:40:13.944Z,98701.77
2018-12-08T04:41:15.070Z,98707.09
2018-12-08T04:42:16.186Z,98703.58
2018-12-08T04:43:17.302Z,98708.75
2018-12-08T04:44:18.442Z,98707.91
2018-12-08T04:45:19.617Z,98704.42
2018-12-08T04:46:20.889Z,98707.09
2018-12-08T04:47:22.029Z,98699.91
2018-12-08T04:48:23.170Z,98706.08
2018-12-08T04:49:24.285Z,98694.78
2018-12-08T04:50:25.406Z,98703.09
2018-12-08T04:51:26.533Z,98696.92
2018-12-08T04:52:27.641Z,98693.77
2018-12-08T04:53:28.757Z,98700.75
2018-12-08T04:54:29.862Z,98705.44
2018-12-08T04:55:30.973Z,98699.09
2018-12-08T04:56:32.112Z,98688.44
2018-12-08T04:57:33.246Z,98703.09
2018-12-08T04:58:34.430Z,98698.09
2018-12-08T04:59:35.553Z,98694.09
2018-12-08T05:00:36.673Z,98700.75
2018-12-08T05:01:37.804Z,98704.42
2018-12-08T05:02:38.922Z,98698.58
2018-12-08T05:03:40.029Z,98700.75
2018-12-08T05:04:41.285Z,98703.58
2018-12-08T05:05:49.409Z,98695.42
2018-12-08T05:06:50.536Z,98694.09
2018-12-08T05:07:51.673Z,98684.77
2018-12-08T05:08:52.795Z,98687.42
2018-12-08T05:09:53.924Z,98690.09
2018-12-08T05:10:55.041Z,98686.58
2018-12-08T05:11:56.169Z,98685.57
2018-12-08T05:12:57.282Z,98682.91
2018-12-08T05:13:58.417Z,98676.45
2018-12-08T05:14:59.537Z,98675.44
2018-12-08T05:16:00.673Z,98678.10
2018-12-08T05:17:01.801Z,98673.26
2018-12-08T05:18:03.007Z,98678.42
2018-12-08T05:19:04.158Z,98663.44
2018-12-08T05:20:12.357Z,98668.77
2018-12-08T05:21:13.548Z,98669.58
2018-12-08T05:22:14.701Z,98662.59
2018-12-08T05:24:23.725Z,98664.45
2018-12-08T05:25:24.868Z,98662.11
2018-12-08T05:26:26.022Z,98663.44
2018-12-08T05:27:27.157Z,98659.45
2018-12-08T05:28:28.289Z,98657.10
2018-12-08T05:29:29.439Z,98656.26
2018-12-08T05:30:30.589Z,98657.10
2018-12-08T05:31:31.734Z,98651.28
2018-12-08T05:32:32.881Z,98654.27
2018-12-08T05:33:34.053Z,98648.41
2018-12-08T05:34:35.162Z,98647.40
2018-12-08T05:35:36.286Z,98621.28
2018-12-08T05:36:37.408Z,98651.40
2018-12-08T05:37:38.538Z,98651.72
2018-12-08T05:38:39.697Z,98649.05
2018-12-08T05:39:40.821Z,98643.72
2018-12-08T05:40:41.945Z,98656.56
2018-12-08T05:41:43.783Z,98651.55
2018-12-08T05:42:44.904Z,98643.55
2018-12-08T05:43:46.045Z,98642.71
2018-12-08T05:44:47.169Z,98645.37
2018-12-08T05:45:48.269Z,98640.05
2018-12-08T05:46:49.405Z,98642.71
2018-12-08T05:47:50.529Z,98638.23
2018-12-08T05:48:51.649Z,98638.23
2018-12-08T05:49:52.774Z,98641.70
2018-12-08T05:50:53.919Z,98636.37
2018-12-08T05:51:55.044Z,98637.53
2018-12-08T05:52:56.175Z,98635.03
2018-12-08T05:53:57.302Z,98637.21
2018-12-08T05:54:58.422Z,98638.02
2018-12-08T05:55:59.561Z,98636.69
2018-12-08T05:57:00.681Z,98640.69
2018-12-08T05:58:01.802Z,98635.36
2018-12-08T05:59:03.177Z,98639.03
2018-12-08T06:00:05.973Z,98647.18
2018-12-08T06:01:07.100Z,98639.67
2018-12-08T06:02:08.218Z,98639.19
2018-12-08T06:03:09.333Z,98631.19
2018-12-08T06:04:10.449Z,98632.84
2018-12-08T06:05:11.593Z,98629.33
2018-12-08T06:06:12.709Z,98632.00
2018-12-08T06:07:13.855Z,98630.66
2018-12-08T06:08:14.990Z,98626.67
2018-12-08T06:09:16.138Z,98626.17
2018-12-08T06:10:17.278Z,98624.32
2018-12-08T06:11:18.445Z,98626.17
2018-12-08T06:12:19.571Z,98625.16
2018-12-08T06:13:20.705Z,98620.33
2018-12-08T06:14:21.845Z,98624.00
2018-12-08T06:15:22.965Z,98628.84
2018-12-08T06:16:24.077Z,98626.67
2018-12-08T06:17:25.878Z,98626.67
2018-12-08T06:18:26.998Z,98623.51
2018-12-08T06:19:28.109Z,98628.64
2018-12-08T06:20:29.234Z,98629.33
2018-12-08T06:21:35.228Z,98625.34
2018-12-08T06:22:36.373Z,98626.98
2018-12-08T06:23:37.489Z,98632.64
2018-12-08T06:24:38.614Z,98626.50
2018-12-08T06:25:39.745Z,98619.83
2018-12-08T06:26:43.114Z,98626.17
2018-12-08T06:27:48.275Z,98627.31
2018-12-08T06:28:49.405Z,98623.83
2018-12-08T06:29:50.517Z,98623.83
2018-12-08T06:30:51.633Z,98620.84
2018-12-08T06:31:52.778Z,98617.66
2018-12-08T06:32:53.897Z,98614.99
2018-12-08T06:33:55.037Z,98611.52
2018-12-08T06:34:56.185Z,98609.17
2018-12-08T06:35:57.368Z,98608.85
2018-12-08T06:36:58.525Z,98603.00
2018-12-08T06:37:59.666Z,98597.67
2018-12-08T06:39:00.795Z,98591.00
2018-12-08T06:40:03.275Z,98587.84
2018-12-08T06:41:04.414Z,98593.67
2018-12-08T06:42:05.527Z,98584.34
2018-12-08T06:43:06.645Z,98594.52
2018-12-08T06:44:07.762Z,98593.35
2018-12-08T06:45:10.445Z,98600.16
2018-12-08T06:46:11.782Z,98599.32
2018-12-08T06:47:12.910Z,98599.64
2018-12-08T06:48:14.029Z,98603.31
2018-12-08T06:49:22.017Z,98602.51
2018-12-08T06:50:23.154Z,98603.31
2018-12-08T06:51:24.277Z,98604.16
2018-12-08T06:52:25.385Z,98601.17
2018-12-08T06:53:26.513Z,98595.32
2018-12-08T06:54:27.782Z,98566.23
2018-12-08T06:55:28.921Z,98587.84
2018-12-08T06:56:30.030Z,98584.34
2018-12-08T06:57:38.041Z,98589.18
2018-12-08T06:58:39.185Z,98587.33
2018-12-08T06:59:40.313Z,98584.86
2018-12-08T07:00:41.435Z,98584.34
2018-12-08T07:01:42.577Z,98587.33
2018-12-08T07:02:43.697Z,98587.01
2018-12-08T07:03:44.826Z,98583.85
2018-12-08T07:04:45.951Z,98587.53
2018-12-08T07:05:47.073Z,98592.66
2018-12-08T07:06:48.234Z,98589.99
2018-12-08T07:07:49.362Z,98585.19
2018-12-08T07:08:50.489Z,98581.19
2018-12-08T07:09:51.629Z,98580.66
2018-12-08T07:10:52.757Z,98576.66
2018-12-08T07:11:53.901Z,98575.85
2018-12-08T07:12:55.019Z,98572.34
2018-12-08T07:13:56.161Z,98574.00
2018-12-08T07:14:57.292Z,98569.68
2018-12-08T07:15:58.412Z,98572.66
2018-12-08T07:16:59.529Z,98568.67
2018-12-08T07:18:00.648Z,98572.34
2018-12-08T07:19:01.773Z,98565.20
2018-12-08T07:20:03.493Z,98570.52
2018-12-08T07:21:04.625Z,98564.35
2018-12-08T07:22:05.753Z,98566.52
2018-12-08T07:23:06.909Z,98568.67
2018-12-08T07:24:08.075Z,98564.67
2018-12-08T07:25:09.219Z,98559.34
2018-12-08T07:26:10.328Z,98557.69
2018-12-08T07:27:11.454Z,98559.34
2018-12-08T07:28:12.589Z,98560.67
2018-12-08T07:29:13.709Z,98566.52
2018-12-08T07:30:14.861Z,98563.34
2018-12-08T07:31:15.993Z,98570.84
2018-12-08T07:32:17.119Z,98563.34
2018-12-08T07:33:18.221Z,98568.35
2018-12-08T07:34:19.338Z,98565.20
2018-12-08T07:35:20.465Z,98567.34
2018-12-08T07:36:21.699Z,98568.67
2018-12-08T07:37:22.801Z,98574.00
2018-12-08T07:38:24.073Z,98566.00
2018-12-08T07:39:25.220Z,98568.67
2018-12-08T07:40:26.361Z,98565.20
2018-12-08T07:41:27.538Z,98566.52
2018-12-08T07:42:28.681Z,98561.20
2018-12-08T07:43:29.789Z,98561.20
2018-12-08T07:44:30.933Z,98563.34
2018-12-08T07:45:32.057Z,98563.34
2018-12-08T07:46:33.201Z,98554.02
2018-12-08T07:47:34.359Z,98552.67
2018-12-08T07:48:35.475Z,98550.02
2018-12-08T07:49:36.618Z,98541.70
2018-12-08T07:50:37.745Z,98537.70
2018-12-08T07:51:38.866Z,98535.35
2018-12-08T07:52:39.989Z,98525.70
2018-12-08T07:53:41.127Z,98522.02
2018-12-08T07:54:42.249Z,98516.38
2018-12-08T07:55:43.378Z,98516.38
2018-12-08T07:56:44.501Z,98511.05
2018-12-08T07:57:45.618Z,98505.72
2018-12-08T07:58:46.758Z,98516.38
2018-12-08T07:59:47.881Z,98517.22
2018-12-08T08:00:48.999Z,98507.05
2018-12-08T08:01:50.149Z,98509.71
2018-12-08T08:02:51.431Z,98512.38
2018-12-08T08:03:52.546Z,98509.22
2018-12-08T08:04:53.696Z,98515.05
2018-12-08T08:05:54.828Z,98516.91
2018-12-08T08:06:55.949Z,98523.88
2018-12-08T08:07:57.074Z,98519.88
2018-12-08T08:08:58.177Z,98520.70
2018-12-08T08:09:59.281Z,98521.70
2018-12-08T08:11:00.409Z,98525.22
2018-12-08T08:12:01.574Z,98523.36
2018-12-08T08:13:02.713Z,98524.20
2018-12-08T08:14:03.837Z,98521.01
2018-12-08T08:15:05.509Z,98512.70
2018-12-08T08:16:06.619Z,98509.02
2018-12-08T08:17:07.746Z,98507.69
2018-12-08T08:18:08.859Z,98502.88
2018-12-08T08:19:10.079Z,98499.69
2018-12-08T08:20:11.369Z,98493.03
2018-12-08T08:21:12.502Z,98495.69
2018-12-08T08:22:13.625Z,98489.03
2018-12-08T08:23:14.833Z,98489.03
2018-12-08T08:24:15.957Z,98490.88
2018-12-08T08:25:17.121Z,98489.03
2018-12-08T08:26:18.245Z,98484.71
2018-12-08T08:27:19.364Z,98487.69
2018-12-08T08:28:20.493Z,98480.72
2018-12-08T08:29:21.618Z,98479.38
2018-12-08T08:30:22.773Z,98472.72
2018-12-08T08:31:23.898Z,98476.72
2018-12-08T08:32:25.082Z,98478.05
2018-12-08T08:33:26.209Z,98469.24
2018-12-08T08:34:27.345Z,98471.91
2018-12-08T08:35:28.469Z,98475.70
2018-12-08T08:36:29.603Z,98475.70
2018-12-08T08:37:31.189Z,98467.91
2018-12-08T08:38:32.365Z,98467.39
2018-12-08T08:39:33.478Z,98466.05
2018-12-08T08:40:34.612Z,98468.72
2018-12-08T08:41:35.765Z,98463.39
2018-12-08T08:42:37.000Z,98468.72
2018-12-08T08:43:38.147Z,98467.70
2018-12-08T08:44:39.277Z,98462.05
2018-12-08T08:45:40.405Z,98464.23
2018-12-08T08:46:41.537Z,98467.39
2018-12-08T08:47:42.661Z,98470.37
2018-12-08T08:48:43.773Z,98461.04
2018-12-08T08:49:44.945Z,98466.05
2018-12-08T08:50:46.093Z,98465.04
2018-12-08T08:51:47.207Z,98461.88
2018-12-08T08:52:48.318Z,98460.23
2018-12-08T08:53:49.416Z,98467.39
2018-12-08T08:54:50.555Z,98464.72
2018-12-08T08:55:51.662Z,98465.04
2018-12-08T08:56:52.797Z,98466.38
2018-12-08T08:57:53.917Z,98461.04
2018-12-08T08:58:55.051Z,98461.36
2018-12-08T08:59:56.185Z,98457.36
2018-12-08T09:00:57.313Z,98454.20
2018-12-08T09:01:58.440Z,98447.72
2018-12-08T09:02:59.565Z,98457.04
2018-12-08T09:04:00.685Z,98456.87
2018-12-08T09:05:01.873Z,98444.03
2018-12-08T09:06:03.126Z,98439.55
2018-12-08T09:07:04.287Z,98432.04
2018-12-08T09:08:12.481Z,98438.70
2018-12-08T09:09:13.624Z,98435.86
2018-12-08T09:10:14.766Z,98432.67
2018-12-08T09:11:15.921Z,98429.52
2018-12-08T09:12:17.070Z,98426.33
2018-12-08T09:13:18.225Z,98426.33
2018-12-08T09:14:19.341Z,98428.98
2018-12-08T09:15:27.418Z,98422.33
2018-12-08T09:16:28.552Z,98422.33
2018-12-08T09:17:29.678Z,98425.31
2018-12-08T09:18:30.814Z,98426.15
2018-12-08T09:19:31.937Z,98421.52
2018-12-08T09:20:33.054Z,98422.33
2018-12-08T09:21:34.190Z,98418.64
2018-12-08T09:22:35.354Z,98422.64
2018-12-08T09:23:36.487Z,98418.02
2018-12-08T09:24:37.609Z,98419.17
2018-12-08T09:25:38.724Z,98415.87
2018-12-08T09:26:39.873Z,98417.00
2018-12-08T09:27:41.041Z,98410.86
2018-12-08T09:28:42.231Z,98420.99
2018-12-08T09:29:43.361Z,98415.66
2018-12-08T09:30:44.570Z,98420.50
2018-12-08T09:31:45.677Z,98417.00
2018-12-08T09:32:46.817Z,98405.00
2018-12-08T09:33:47.963Z,98410.33
2018-12-08T09:34:49.114Z,98405.84
2018-12-08T09:35:50.352Z,98402.55
2018-12-08T09:36:51.528Z,98394.02
2018-12-08T09:37:52.745Z,98398.34
2018-12-08T09:38:53.882Z,98390.02
2018-12-08T09:39:55.019Z,98394.02
2018-12-08T09:40:56.159Z,98383.89
2018-12-08T09:41:57.273Z,98389.53
2018-12-08T09:42:58.388Z,98384.70
2018-12-08T09:43:59.497Z,98378.88
2018-12-08T09:45:00.629Z,98377.23
2018-12-08T09:46:01.742Z,98382.87
2018-12-08T09:47:03.042Z,98374.34
2018-12-08T09:48:04.172Z,98376.00
2018-12-08T09:49:05.425Z,98365.02
2018-12-08T09:50:06.834Z,98365.34
2018-12-08T09:51:07.969Z,98359.52
2018-12-08T09:52:09.107Z,98360.31
2018-12-08T09:53:13.983Z,98356.32
2018-12-08T09:54:15.109Z,98349.97
2018-12-08T09:55:16.249Z,98356.64
2018-12-08T09:56:17.582Z,98356.32
2018-12-08T09:57:18.702Z,98356.14
2018-12-08T09:58:19.822Z,98351.62
2018-12-08T09:59:20.937Z,98352.14
2018-12-08T10:00:22.061Z,98341.48
2018-12-08T10:01:23.177Z,98347.94
2018-12-08T10:02:24.339Z,98340.95
2018-12-08T10:03:25.461Z,98340.95
2018-12-08T10:04:26.703Z,98333.98
2018-12-08T10:05:34.842Z,98334.81
2018-12-08T10:06:36.058Z,98330.30
2018-12-08T10:07:37.182Z,98334.30
2018-12-08T10:08:38.337Z,98332.16
2018-12-08T10:09:39.455Z,98330.30
2018-12-08T10:10:40.583Z,98320.66
2018-12-08T10:11:41.725Z,98322.30
2018-12-08T10:12:42.845Z,98318.83
2018-12-08T10:13:43.950Z,98313.81
2018-12-08T10:14:45.068Z,98312.16
2018-12-08T10:15:46.198Z,98313.50
2018-12-08T10:16:47.335Z,98309.98
2018-12-08T10:17:48.469Z,98308.97
2018-12-08T10:18:49.605Z,98311.32
2018-12-08T10:19:50.725Z,98305.99
2018-12-08T10:20:51.858Z,98306.20
2018-12-08T10:21:53.015Z,98305.99
2018-12-08T10:22:54.129Z,98308.34
2018-12-08T10:23:55.263Z,98300.34
2018-12-08T10:24:56.385Z,98275.16
2018-12-08T10:25:57.517Z,98297.68
2018-12-08T10:26:58.641Z,98289.89
2018-12-08T10:27:59.749Z,98288.56
2018-12-08T10:29:00.861Z,98282.39
2018-12-08T10:30:03.235Z,98282.92
2018-12-08T10:31:04.386Z,98283.73
2018-12-08T10:32:05.521Z,98285.06
2018-12-08T10:33:06.797Z,98274.40
2018-12-08T10:34:07.967Z,98278.08
2018-12-08T10:35:10.241Z,98279.73
2018-12-08T10:36:11.374Z,98275.73
2018-12-08T10:37:12.666Z,98266.09
2018-12-08T10:38:13.797Z,98264.44
2018-12-08T10:39:14.965Z,98268.44
2018-12-08T10:40:16.104Z,98265.77
2018-12-08T10:41:17.233Z,98264.13
2018-12-08T10:42:18.366Z,98259.64
2018-12-08T10:43:19.489Z,98256.97
2018-12-08T10:44:20.600Z,98246.00
2018-12-08T10:45:21.761Z,98248.14
2018-12-08T10:46:22.927Z,98245.69
2018-12-08T10:47:24.047Z,98251.82
2018-12-08T10:48:25.182Z,98241.69
2018-12-08T10:49:26.333Z,98247.52
2018-12-08T10:50:27.452Z,98244.04
2018-12-08T10:51:28.599Z,98247.52
2018-12-08T10:52:29.714Z,98245.38
2018-12-08T10:53:30.847Z,98243.52
2018-12-08T10:54:31.979Z,98217.58
2018-12-08T10:55:33.117Z,98246.39
2018-12-08T10:56:34.278Z,98241.37
2018-12-08T10:57:35.408Z,98239.73
2018-12-08T10:58:36.545Z,98241.87
2018-12-08T10:59:37.682Z,98220.05
2018-12-08T11:00:44.742Z,98218.90
2018-12-08T11:01:51.785Z,98210.59
2018-12-08T11:02:52.939Z,98212.77
2018-12-08T11:04:00.902Z,98216.23
2018-12-08T11:05:02.054Z,98210.91
2018-12-08T11:06:03.217Z,98211.92
2018-12-08T11:07:04.353Z,98214.59
2018-12-08T11:08:05.517Z,98204.95
2018-12-08T11:09:06.665Z,98207.12
2018-12-08T11:10:07.841Z,98206.59
2018-12-08T11:11:08.981Z,98203.62
2018-12-08T11:12:10.098Z,98202.60
2018-12-08T11:13:11.242Z,98208.95
2018-12-08T11:14:12.489Z,98201.97
2018-12-08T11:15:13.614Z,98201.97
2018-12-08T11:16:14.769Z,98198.28
2018-12-08T11:17:15.901Z,98195.63
2018-12-08T11:18:17.009Z,98196.64
2018-12-08T11:19:18.127Z,98189.67
2018-12-08T11:20:19.249Z,98186.69
2018-12-08T11:21:20.373Z,98188.34
2018-12-08T11:22:21.534Z,98188.34
2018-12-08T11:23:22.667Z,98185.67
2018-12-08T11:24:23.806Z,98189.36
2018-12-08T11:25:24.930Z,98182.38
2018-12-08T11:26:26.068Z,98185.89
2018-12-08T11:27:27.205Z,98186.69
2018-12-08T11:28:28.329Z,98183.22
2018-12-08T11:29:29.459Z,98178.91
2018-12-08T11:30:31.403Z,98173.58
2018-12-08T11:31:32.637Z,98175.23
2018-12-08T11:32:33.762Z,98175.72
2018-12-08T11:33:34.951Z,98155.59
2018-12-08T11:34:36.081Z,98179.72
2018-12-08T11:35:37.193Z,98170.91
2018-12-08T11:36:38.318Z,98178.91
2018-12-08T11:37:39.461Z,98171.72
2018-12-08T11:38:40.605Z,98171.41
2018-12-08T11:39:41.843Z,98169.77
2018-12-08T11:40:42.991Z,98167.94
2018-12-08T11:41:44.121Z,98166.61
2018-12-08T11:42:45.266Z,98168.44
2018-12-08T11:43:46.532Z,98161.77
2018-12-08T11:44:47.710Z,98160.75
2018-12-08T11:45:48.861Z,98148.76
2018-12-08T11:46:50.169Z,98153.91
2018-12-08T11:47:51.293Z,98149.38
2018-12-08T11:48:52.469Z,98155.03
2018-12-08T11:49:53.588Z,98152.36
2018-12-08T11:50:54.702Z,98149.20
2018-12-08T11:51:55.829Z,98149.20
2018-12-08T11:52:56.945Z,98146.33
2018-12-08T11:53:58.098Z,98147.97
2018-12-08T11:54:59.258Z,98141.83
2018-12-08T11:56:00.385Z,98137.62
2018-12-08T11:57:01.505Z,98140.50
2018-12-08T11:58:02.689Z,98135.98
2018-12-08T11:59:03.834Z,98132.50
2018-12-08T12:00:07.551Z,98126.96
2018-12-08T12:01:08.695Z,98121.32
2018-12-08T12:02:16.328Z,98120.83